sensor_id;sensor_type;location;lat;lon;timestamp;pressure;altitude;pressure_sealevel;temperature;humidity
55550;BME280;41397;49.972;18.944;2022-07-15T00:04:03;101638.30;;;22.07;79.58
55550;BME280;41397;49.972;18.944;2022-07-15T00:09:17;101631.01;;;22.06;79.15
55550;BME280;41397;49.972;18.944;2022-07-15T00:14:31;101644.41;;;22.10;79.31
55550;BME280;41397;49.972;18.944;2022-07-15T00:19:45;101634.61;;;22.14;78.62
55550;BME280;41397;49.972;18.944;2022-07-15T00:20:03;101633.91;;;22.12;78.58
55550;BME280;41397;49.972;18.944;2022-07-15T00:24:59;101625.02;;;22.17;78.35
55550;BME280;41397;49.972;18.944;2022-07-15T00:30:13;101624.89;;;22.19;78.05
55550;BME280;41397;49.972;18.944;2022-07-15T00:35:28;101619.13;;;22.12;78.32
55550;BME280;41397;49.972;18.944;2022-07-15T00:40:46;101605.75;;;22.07;78.83
55550;BME280;41397;49.972;18.944;2022-07-15T00:46:00;101612.93;;;22.02;78.21
55550;BME280;41397;49.972;18.944;2022-07-15T00:50:19;101609.82;;;21.97;78.76
55550;BME280;41397;49.972;18.944;2022-07-15T00:51:14;101613.46;;;21.97;78.59
55550;BME280;41397;49.972;18.944;2022-07-15T00:56:28;101622.71;;;21.89;78.72
55550;BME280;41397;49.972;18.944;2022-07-15T01:01:43;101630.77;;;21.76;78.88
55550;BME280;41397;49.972;18.944;2022-07-15T01:06:58;101622.09;;;21.71;78.19
55550;BME280;41397;49.972;18.944;2022-07-15T01:12:12;101632.72;;;21.67;78.61
55550;BME280;41397;49.972;18.944;2022-07-15T01:17:26;101637.09;;;21.62;79.08
55550;BME280;41397;49.972;18.944;2022-07-15T01:20:33;101636.38;;;21.60;78.95
55550;BME280;41397;49.972;18.944;2022-07-15T01:22:40;101624.39;;;21.59;78.96
55550;BME280;41397;49.972;18.944;2022-07-15T01:27:54;101633.81;;;21.50;79.16
55550;BME280;41397;49.972;18.944;2022-07-15T01:33:08;101632.05;;;21.49;78.70
55550;BME280;41397;49.972;18.944;2022-07-15T01:38:25;101643.04;;;21.42;78.87
55550;BME280;41397;49.972;18.944;2022-07-15T01:43:39;101632.94;;;21.41;78.69
55550;BME280;41397;49.972;18.944;2022-07-15T01:48:52;101641.65;;;21.38;78.39
55550;BME280;41397;49.972;18.944;2022-07-15T01:50:47;101641.81;;;21.37;78.40
55550;BME280;41397;49.972;18.944;2022-07-15T01:54:18;101640.41;;;21.33;78.00
55550;BME280;41397;49.972;18.944;2022-07-15T01:59:32;101651.73;;;21.31;78.21
55550;BME280;41397;49.972;18.944;2022-07-15T02:04:48;101655.90;;;21.27;77.65
55550;BME280;41397;49.972;18.944;2022-07-15T02:10:06;101664.76;;;21.22;77.91
55550;BME280;41397;49.972;18.944;2022-07-15T02:15:22;101669.66;;;21.20;78.23
55550;BME280;41397;49.972;18.944;2022-07-15T02:20:36;101666.52;;;21.15;77.98
55550;BME280;41397;49.972;18.944;2022-07-15T02:21:00;101676.95;;;21.13;77.95
55550;BME280;41397;49.972;18.944;2022-07-15T02:25:50;101679.73;;;21.05;78.43
55550;BME280;41397;49.972;18.944;2022-07-15T02:31:05;101688.94;;;20.97;79.06
55550;BME280;41397;49.972;18.944;2022-07-15T02:36:18;101687.71;;;20.92;79.24
55550;BME280;41397;49.972;18.944;2022-07-15T02:41:32;101693.81;;;20.87;79.70
55550;BME280;41397;49.972;18.944;2022-07-15T02:46:46;101694.83;;;20.86;80.13
55550;BME280;41397;49.972;18.944;2022-07-15T02:51:15;101699.01;;;20.82;80.75
55550;BME280;41397;49.972;18.944;2022-07-15T02:51:59;101703.52;;;20.83;80.84
55550;BME280;41397;49.972;18.944;2022-07-15T02:57:13;101710.79;;;20.76;81.23
55550;BME280;41397;49.972;18.944;2022-07-15T03:02:27;101716.36;;;20.76;81.70
55550;BME280;41397;49.972;18.944;2022-07-15T03:07:41;101716.53;;;20.66;81.80
55550;BME280;41397;49.972;18.944;2022-07-15T03:12:55;101733.52;;;20.55;81.98
55550;BME280;41397;49.972;18.944;2022-07-15T03:18:08;101732.66;;;20.54;81.92
55550;BME280;41397;49.972;18.944;2022-07-15T03:21:29;101735.96;;;20.58;81.17
55550;BME280;41397;49.972;18.944;2022-07-15T03:23:22;101737.69;;;20.59;80.90
55550;BME280;41397;49.972;18.944;2022-07-15T03:28:35;101748.23;;;20.47;81.60
55550;BME280;41397;49.972;18.944;2022-07-15T03:33:49;101760.91;;;20.50;81.43
55550;BME280;41397;49.972;18.944;2022-07-15T03:39:07;101772.91;;;20.93;80.07
55550;BME280;41397;49.972;18.944;2022-07-15T03:44:20;101776.46;;;21.44;78.03
55550;BME280;41397;49.972;18.944;2022-07-15T03:49:34;101781.48;;;21.89;75.09
55550;BME280;41397;49.972;18.944;2022-07-15T03:51:43;101791.05;;;21.95;74.79
55550;BME280;41397;49.972;18.944;2022-07-15T03:54:48;101791.05;;;21.95;73.46
55550;BME280;41397;49.972;18.944;2022-07-15T04:00:02;101818.41;;;21.91;72.03
55550;BME280;41397;49.972;18.944;2022-07-15T04:05:16;101814.77;;;21.66;72.90
55550;BME280;41397;49.972;18.944;2022-07-15T04:10:30;101832.84;;;21.46;73.43
55550;BME280;41397;49.972;18.944;2022-07-15T04:15:45;101833.19;;;21.43;73.33
55550;BME280;41397;49.972;18.944;2022-07-15T04:21:00;101837.05;;;21.58;73.55
55550;BME280;41397;49.972;18.944;2022-07-15T04:21:56;101841.39;;;21.61;72.85
55550;BME280;41397;49.972;18.944;2022-07-15T04:26:14;101841.91;;;21.89;71.35
55550;BME280;41397;49.972;18.944;2022-07-15T04:31:27;101847.05;;;22.49;69.71
55550;BME280;41397;49.972;18.944;2022-07-15T04:36:41;101861.45;;;22.69;66.20
55550;BME280;41397;49.972;18.944;2022-07-15T04:41:55;101870.35;;;23.12;65.04
55550;BME280;41397;49.972;18.944;2022-07-15T04:47:08;101876.99;;;23.42;63.79
55550;BME280;41397;49.972;18.944;2022-07-15T04:52:10;101880.44;;;23.99;61.97
55550;BME280;41397;49.972;18.944;2022-07-15T04:52:23;101885.52;;;23.95;61.96
55550;BME280;41397;49.972;18.944;2022-07-15T04:57:41;101886.97;;;24.29;59.26
55550;BME280;41397;49.972;18.944;2022-07-15T05:02:55;101885.88;;;24.68;57.66
55550;BME280;41397;49.972;18.944;2022-07-15T05:08:09;101893.51;;;25.18;57.09
55550;BME280;41397;49.972;18.944;2022-07-15T05:13:23;101902.30;;;25.52;55.59
55550;BME280;41397;49.972;18.944;2022-07-15T05:18:37;101905.01;;;25.81;55.87
55550;BME280;41397;49.972;18.944;2022-07-15T05:22:23;101911.13;;;26.13;54.96
55550;BME280;41397;49.972;18.944;2022-07-15T05:23:50;101914.28;;;26.25;54.86
55550;BME280;41397;49.972;18.944;2022-07-15T05:29:04;101937.32;;;26.48;52.47
55550;BME280;41397;49.972;18.944;2022-07-15T05:34:18;101948.76;;;26.68;51.68
55550;BME280;41397;49.972;18.944;2022-07-15T05:39:32;101953.84;;;26.86;50.48
55550;BME280;41397;49.972;18.944;2022-07-15T05:44:46;101964.48;;;26.97;49.97
55550;BME280;41397;49.972;18.944;2022-07-15T05:50:00;101978.09;;;26.94;48.40
55550;BME280;41397;49.972;18.944;2022-07-15T05:52:38;101979.45;;;27.05;48.10
55550;BME280;41397;49.972;18.944;2022-07-15T05:55:14;101984.14;;;27.26;47.91
55550;BME280;41397;49.972;18.944;2022-07-15T06:00:28;101987.66;;;27.41;46.53
55550;BME280;41397;49.972;18.944;2022-07-15T06:05:42;101990.34;;;27.56;46.82
55550;BME280;41397;49.972;18.944;2022-07-15T06:10:56;101991.87;;;27.58;46.52
55550;BME280;41397;49.972;18.944;2022-07-15T06:16:13;102002.02;;;27.59;44.93
55550;BME280;41397;49.972;18.944;2022-07-15T06:21:30;102005.51;;;27.68;45.13
55550;BME280;41397;49.972;18.944;2022-07-15T06:22:52;102007.70;;;27.73;45.10
55550;BME280;41397;49.972;18.944;2022-07-15T06:26:44;102013.17;;;27.81;44.46
55550;BME280;41397;49.972;18.944;2022-07-15T06:31:58;102021.89;;;28.13;44.43
55550;BME280;41397;49.972;18.944;2022-07-15T06:37:11;102025.41;;;28.21;44.43
55550;BME280;41397;49.972;18.944;2022-07-15T06:42:25;102029.04;;;28.08;44.29
55550;BME280;41397;49.972;18.944;2022-07-15T06:47:42;102042.05;;;28.23;44.18
55550;BME280;41397;49.972;18.944;2022-07-15T06:52:56;102042.88;;;28.10;42.98
55550;BME280;41397;49.972;18.944;2022-07-15T06:53:10;102052.21;;;28.10;43.31
55550;BME280;41397;49.972;18.944;2022-07-15T06:58:10;102060.84;;;28.09;44.13
55550;BME280;41397;49.972;18.944;2022-07-15T07:03:23;102053.40;;;27.81;42.38
55550;BME280;41397;49.972;18.944;2022-07-15T07:08:37;102056.71;;;27.57;41.97
55550;BME280;41397;49.972;18.944;2022-07-15T07:13:51;102068.02;;;27.70;43.54
55550;BME280;41397;49.972;18.944;2022-07-15T07:19:05;102075.41;;;27.78;43.30
55550;BME280;41397;49.972;18.944;2022-07-15T07:23:24;102075.70;;;27.83;43.40
55550;BME280;41397;49.972;18.944;2022-07-15T07:24:19;102078.96;;;27.93;43.22
55550;BME280;41397;49.972;18.944;2022-07-15T07:29:33;102080.10;;;28.05;43.14
55550;BME280;41397;49.972;18.944;2022-07-15T07:34:47;102082.44;;;27.95;42.81
55550;BME280;41397;49.972;18.944;2022-07-15T07:40:00;102087.88;;;28.10;42.92
55550;BME280;41397;49.972;18.944;2022-07-15T07:45:14;102098.03;;;28.04;42.83
55550;BME280;41397;49.972;18.944;2022-07-15T07:50:31;102098.57;;;28.34;41.12
55550;BME280;41397;49.972;18.944;2022-07-15T07:53:42;102102.47;;;28.33;40.57
55550;BME280;41397;49.972;18.944;2022-07-15T07:55:50;102107.73;;;28.50;41.18
55550;BME280;41397;49.972;18.944;2022-07-15T08:01:06;102116.87;;;28.72;41.21
55550;BME280;41397;49.972;18.944;2022-07-15T08:06:22;102115.12;;;28.58;39.66
55550;BME280;41397;49.972;18.944;2022-07-15T08:11:39;102120.29;;;28.47;39.75
55550;BME280;41397;49.972;18.944;2022-07-15T08:16:57;102121.18;;;28.61;38.55
55550;BME280;41397;49.972;18.944;2022-07-15T08:22:14;102122.53;;;28.10;38.19
55550;BME280;41397;49.972;18.944;2022-07-15T08:23:55;102113.91;;;28.19;38.07
55550;BME280;41397;49.972;18.944;2022-07-15T08:27:31;102114.58;;;28.27;39.55
55550;BME280;41397;49.972;18.944;2022-07-15T08:32:48;102112.93;;;28.46;39.01
55550;BME280;41397;49.972;18.944;2022-07-15T08:38:05;102121.50;;;28.25;39.59
55550;BME280;41397;49.972;18.944;2022-07-15T08:43:22;102116.77;;;28.39;39.25
55550;BME280;41397;49.972;18.944;2022-07-15T08:48:40;102120.17;;;28.21;39.09
55550;BME280;41397;49.972;18.944;2022-07-15T08:53:56;102125.41;;;28.30;38.33
55550;BME280;41397;49.972;18.944;2022-07-15T08:54:14;102118.20;;;28.15;38.29
55550;BME280;41397;49.972;18.944;2022-07-15T08:59:14;102126.16;;;28.04;39.53
55550;BME280;41397;49.972;18.944;2022-07-15T09:04:30;102135.25;;;27.65;39.08
55550;BME280;41397;49.972;18.944;2022-07-15T09:09:44;102125.59;;;27.39;39.23
55550;BME280;41397;49.972;18.944;2022-07-15T09:14:57;102125.77;;;27.73;38.84
55550;BME280;41397;49.972;18.944;2022-07-15T09:20:11;102132.70;;;27.77;37.80
55550;BME280;41397;49.972;18.944;2022-07-15T09:24:28;102134.22;;;28.07;38.79
55550;BME280;41397;49.972;18.944;2022-07-15T09:25:28;102132.89;;;28.10;38.58
55550;BME280;41397;49.972;18.944;2022-07-15T09:30:46;102125.16;;;28.19;38.49
55550;BME280;41397;49.972;18.944;2022-07-15T09:41:35;102117.70;;;28.59;37.14
55550;BME280;41397;49.972;18.944;2022-07-15T09:47:00;102116.35;;;28.42;37.43
55550;BME280;41397;49.972;18.944;2022-07-15T09:52:14;102111.29;;;28.10;36.49
55550;BME280;41397;49.972;18.944;2022-07-15T09:54:45;102106.70;;;28.03;35.59
55550;BME280;41397;49.972;18.944;2022-07-15T09:57:28;102113.26;;;28.23;36.62
55550;BME280;41397;49.972;18.944;2022-07-15T10:02:42;102112.08;;;27.91;37.51
55550;BME280;41397;49.972;18.944;2022-07-15T10:07:55;102112.76;;;27.65;36.88
55550;BME280;41397;49.972;18.944;2022-07-15T10:25:13;102099.81;;;27.71;36.23
55550;BME280;41397;49.972;18.944;2022-07-15T10:29:29;102104.20;;;27.80;36.21
55550;BME280;41397;49.972;18.944;2022-07-15T10:34:44;102104.05;;;27.53;36.06
55550;BME280;41397;49.972;18.944;2022-07-15T10:39:58;102087.53;;;27.78;36.77
55550;BME280;41397;49.972;18.944;2022-07-15T10:45:19;102105.23;;;27.72;35.80
55550;BME280;41397;49.972;18.944;2022-07-15T10:50:39;102104.69;;;27.55;34.47
55550;BME280;41397;49.972;18.944;2022-07-15T10:55:26;102105.23;;;27.37;34.41
55550;BME280;41397;49.972;18.944;2022-07-15T10:55:53;102098.91;;;27.29;34.45
55550;BME280;41397;49.972;18.944;2022-07-15T11:01:11;102111.22;;;27.62;35.73
55550;BME280;41397;49.972;18.944;2022-07-15T11:06:29;102112.16;;;27.41;34.93
55550;BME280;41397;49.972;18.944;2022-07-15T11:11:47;102114.17;;;27.19;35.95
55550;BME280;41397;49.972;18.944;2022-07-15T11:17:02;102113.65;;;27.09;35.78
55550;BME280;41397;49.972;18.944;2022-07-15T11:22:17;102112.88;;;26.72;35.90
55550;BME280;41397;49.972;18.944;2022-07-15T11:25:40;102103.64;;;26.78;36.58
55550;BME280;41397;49.972;18.944;2022-07-15T11:27:32;102108.38;;;26.78;36.57
55550;BME280;41397;49.972;18.944;2022-07-15T11:32:54;102105.45;;;26.86;36.59
55550;BME280;41397;49.972;18.944;2022-07-15T11:38:09;102088.58;;;27.36;36.68
55550;BME280;41397;49.972;18.944;2022-07-15T11:43:23;102109.31;;;27.35;35.67
55550;BME280;41397;49.972;18.944;2022-07-15T11:48:49;102100.83;;;27.28;35.83
55550;BME280;41397;49.972;18.944;2022-07-15T11:54:04;102103.54;;;27.15;34.25
55550;BME280;41397;49.972;18.944;2022-07-15T11:55:58;102107.77;;;27.04;34.81
55550;BME280;41397;49.972;18.944;2022-07-15T11:59:18;102106.49;;;27.07;36.04
55550;BME280;41397;49.972;18.944;2022-07-15T12:04:33;102101.25;;;27.25;35.91
55550;BME280;41397;49.972;18.944;2022-07-15T12:09:49;102102.84;;;27.34;37.51
55550;BME280;41397;49.972;18.944;2022-07-15T12:15:07;102106.80;;;26.90;36.08
55550;BME280;41397;49.972;18.944;2022-07-15T12:20:25;102095.08;;;26.87;35.69
55550;BME280;41397;49.972;18.944;2022-07-15T12:25:39;102089.53;;;26.93;37.28
55550;BME280;41397;49.972;18.944;2022-07-15T12:26:12;102097.95;;;26.93;37.09
55550;BME280;41397;49.972;18.944;2022-07-15T12:30:53;102087.47;;;26.81;35.53
55550;BME280;41397;49.972;18.944;2022-07-15T12:36:14;102094.59;;;26.55;35.94
55550;BME280;41397;49.972;18.944;2022-07-15T12:41:28;102090.27;;;26.81;37.31
55550;BME280;41397;49.972;18.944;2022-07-15T12:56:26;102092.90;;;26.82;35.63
55550;BME280;41397;49.972;18.944;2022-07-15T12:57:36;102098.60;;;26.95;35.92
55550;BME280;41397;49.972;18.944;2022-07-15T13:02:57;102087.88;;;27.06;35.86
55550;BME280;41397;49.972;18.944;2022-07-15T13:08:13;102087.55;;;27.15;35.69
55550;BME280;41397;49.972;18.944;2022-07-15T13:13:30;102084.13;;;27.20;34.97
55550;BME280;41397;49.972;18.944;2022-07-15T13:18:44;102076.91;;;27.39;35.32
55550;BME280;41397;49.972;18.944;2022-07-15T13:23:57;102072.22;;;27.46;35.24
55550;BME280;41397;49.972;18.944;2022-07-15T13:26:40;102082.17;;;27.49;34.94
55550;BME280;41397;49.972;18.944;2022-07-15T13:29:11;102079.38;;;27.55;34.68
55550;BME280;41397;49.972;18.944;2022-07-15T13:34:26;102078.95;;;27.52;34.05
55550;BME280;41397;49.972;18.944;2022-07-15T13:39:40;102086.95;;;27.55;34.03
55550;BME280;41397;49.972;18.944;2022-07-15T13:44:54;102071.50;;;27.72;33.79
55550;BME280;41397;49.972;18.944;2022-07-15T13:50:10;102075.17;;;27.73;34.76
55550;BME280;41397;49.972;18.944;2022-07-15T13:55:36;102071.72;;;27.77;33.96
55550;BME280;41397;49.972;18.944;2022-07-15T13:56:53;102075.60;;;27.70;34.26
55550;BME280;41397;49.972;18.944;2022-07-15T14:00:52;102064.37;;;27.76;34.62
55550;BME280;41397;49.972;18.944;2022-07-15T14:06:06;102077.80;;;27.39;33.91
55550;BME280;41397;49.972;18.944;2022-07-15T14:11:20;102073.66;;;27.77;34.69
55550;BME280;41397;49.972;18.944;2022-07-15T14:16:34;102081.84;;;27.65;34.13
55550;BME280;41397;49.972;18.944;2022-07-15T14:21:48;102076.99;;;27.52;33.04
55550;BME280;41397;49.972;18.944;2022-07-15T14:27:02;102071.80;;;27.49;33.95
55550;BME280;41397;49.972;18.944;2022-07-15T14:27:16;102072.88;;;27.48;33.86
55550;BME280;41397;49.972;18.944;2022-07-15T14:32:16;102065.30;;;27.49;33.48
55550;BME280;41397;49.972;18.944;2022-07-15T14:37:30;102078.41;;;27.35;34.40
55550;BME280;41397;49.972;18.944;2022-07-15T14:42:43;102070.66;;;27.37;33.97
55550;BME280;41397;49.972;18.944;2022-07-15T14:47:57;102063.85;;;27.25;33.73
55550;BME280;41397;49.972;18.944;2022-07-15T14:53:13;102075.13;;;27.03;33.84
55550;BME280;41397;49.972;18.944;2022-07-15T14:57:30;102061.87;;;26.90;33.48
55550;BME280;41397;49.972;18.944;2022-07-15T14:58:29;102080.17;;;26.86;33.92
55550;BME280;41397;49.972;18.944;2022-07-15T15:03:46;102078.23;;;26.87;34.97
55550;BME280;41397;49.972;18.944;2022-07-15T15:09:03;102081.11;;;26.93;34.40
55550;BME280;41397;49.972;18.944;2022-07-15T15:14:20;102082.27;;;26.77;34.82
55550;BME280;41397;49.972;18.944;2022-07-15T15:19:37;102088.02;;;26.69;35.17
55550;BME280;41397;49.972;18.944;2022-07-15T15:24:54;102090.87;;;26.54;34.31
55550;BME280;41397;49.972;18.944;2022-07-15T15:27:43;102081.70;;;26.46;34.48
55550;BME280;41397;49.972;18.944;2022-07-15T15:30:09;102088.98;;;26.40;35.33
55550;BME280;41397;49.972;18.944;2022-07-15T15:35:23;102092.03;;;26.24;34.94
55550;BME280;41397;49.972;18.944;2022-07-15T15:40:36;102090.73;;;26.05;35.23
55550;BME280;41397;49.972;18.944;2022-07-15T15:45:50;102091.59;;;26.05;35.94
55550;BME280;41397;49.972;18.944;2022-07-15T15:51:04;102085.40;;;26.10;35.06
55550;BME280;41397;49.972;18.944;2022-07-15T15:56:18;102085.92;;;25.99;35.30
55550;BME280;41397;49.972;18.944;2022-07-15T15:57:57;102082.55;;;25.88;35.87
55550;BME280;41397;49.972;18.944;2022-07-15T16:01:33;102079.81;;;25.80;35.71
55550;BME280;41397;49.972;18.944;2022-07-15T16:06:47;102085.25;;;25.67;35.67
55550;BME280;41397;49.972;18.944;2022-07-15T16:12:01;102083.16;;;25.54;35.70
55550;BME280;41397;49.972;18.944;2022-07-15T16:17:14;102087.09;;;25.45;35.59
55550;BME280;41397;49.972;18.944;2022-07-15T16:22:27;102102.19;;;25.29;35.82
55550;BME280;41397;49.972;18.944;2022-07-15T16:27:53;102093.69;;;25.37;36.14
55550;BME280;41397;49.972;18.944;2022-07-15T16:28:11;102091.06;;;25.36;35.90
55550;BME280;41397;49.972;18.944;2022-07-15T16:33:07;102097.35;;;25.38;36.10
55550;BME280;41397;49.972;18.944;2022-07-15T16:38:21;102092.91;;;25.43;36.40
55550;BME280;41397;49.972;18.944;2022-07-15T16:43:34;102093.00;;;25.35;36.42
55550;BME280;41397;49.972;18.944;2022-07-15T16:48:49;102102.75;;;25.24;36.19
55550;BME280;41397;49.972;18.944;2022-07-15T16:54:03;102099.26;;;25.22;36.70
55550;BME280;41397;49.972;18.944;2022-07-15T16:58:26;102098.91;;;25.02;36.54
55550;BME280;41397;49.972;18.944;2022-07-15T16:59:17;102102.11;;;24.99;36.54
55550;BME280;41397;49.972;18.944;2022-07-15T17:04:31;102105.77;;;25.00;36.25
55550;BME280;41397;49.972;18.944;2022-07-15T17:09:47;102120.77;;;24.84;36.80
55550;BME280;41397;49.972;18.944;2022-07-15T17:15:00;102114.75;;;24.72;36.57
55550;BME280;41397;49.972;18.944;2022-07-15T17:20:15;102110.20;;;24.71;37.02
55550;BME280;41397;49.972;18.944;2022-07-15T17:25:29;102112.40;;;24.61;37.14
55550;BME280;41397;49.972;18.944;2022-07-15T17:28:40;102104.35;;;24.58;36.77
55550;BME280;41397;49.972;18.944;2022-07-15T17:30:43;102109.23;;;24.64;37.29
55550;BME280;41397;49.972;18.944;2022-07-15T17:35:57;102110.48;;;24.62;37.33
55550;BME280;41397;49.972;18.944;2022-07-15T17:41:11;102113.06;;;24.63;37.19
55550;BME280;41397;49.972;18.944;2022-07-15T17:46:25;102110.53;;;24.53;37.57
55550;BME280;41397;49.972;18.944;2022-07-15T17:51:39;102112.66;;;24.43;37.55
55550;BME280;41397;49.972;18.944;2022-07-15T17:56:53;102120.66;;;24.23;37.94
55550;BME280;41397;49.972;18.944;2022-07-15T17:58:53;102120.52;;;24.17;37.54
55550;BME280;41397;49.972;18.944;2022-07-15T18:02:08;102122.32;;;24.09;37.61
55550;BME280;41397;49.972;18.944;2022-07-15T18:07:22;102121.41;;;23.78;37.79
55550;BME280;41397;49.972;18.944;2022-07-15T18:12:35;102127.53;;;23.65;38.11
55550;BME280;41397;49.972;18.944;2022-07-15T18:17:49;102138.91;;;23.63;38.69
55550;BME280;41397;49.972;18.944;2022-07-15T18:23:03;102144.32;;;23.57;38.94
55550;BME280;41397;49.972;18.944;2022-07-15T18:28:16;102139.13;;;23.37;39.16
55550;BME280;41397;49.972;18.944;2022-07-15T18:29:07;102141.23;;;23.35;39.02
55550;BME280;41397;49.972;18.944;2022-07-15T18:33:30;102152.10;;;23.22;39.73
55550;BME280;41397;49.972;18.944;2022-07-15T18:38:44;102147.20;;;23.16;39.81
55550;BME280;41397;49.972;18.944;2022-07-15T18:43:58;102164.13;;;23.06;39.54
55550;BME280;41397;49.972;18.944;2022-07-15T18:49:14;102154.00;;;22.97;39.81
55550;BME280;41397;49.972;18.944;2022-07-15T18:54:27;102173.70;;;22.87;39.99
55550;BME280;41397;49.972;18.944;2022-07-15T18:59:21;102173.34;;;22.74;40.20
55550;BME280;41397;49.972;18.944;2022-07-15T18:59:41;102173.49;;;22.72;40.02
55550;BME280;41397;49.972;18.944;2022-07-15T19:04:55;102175.77;;;22.69;40.78
55550;BME280;41397;49.972;18.944;2022-07-15T19:10:08;102192.86;;;22.74;41.17
55550;BME280;41397;49.972;18.944;2022-07-15T19:15:22;102197.73;;;22.72;41.38
55550;BME280;41397;49.972;18.944;2022-07-15T19:20:36;102193.71;;;22.66;41.39
55550;BME280;41397;49.972;18.944;2022-07-15T19:25:50;102200.85;;;22.60;41.72
55550;BME280;41397;49.972;18.944;2022-07-15T19:29:34;102204.35;;;22.63;41.57
55550;BME280;41397;49.972;18.944;2022-07-15T19:31:03;102199.99;;;22.60;41.54
55550;BME280;41397;49.972;18.944;2022-07-15T19:36:17;102196.12;;;22.53;42.04
55550;BME280;41397;49.972;18.944;2022-07-15T19:41:31;102201.00;;;22.43;42.11
55550;BME280;41397;49.972;18.944;2022-07-15T19:46:46;102207.59;;;22.42;42.16
55550;BME280;41397;49.972;18.944;2022-07-15T19:52:04;102209.00;;;22.37;42.25
55550;BME280;41397;49.972;18.944;2022-07-15T19:57:21;102205.84;;;22.32;42.34
55550;BME280;41397;49.972;18.944;2022-07-15T19:59:48;102206.34;;;22.28;42.32
55550;BME280;41397;49.972;18.944;2022-07-15T20:02:38;102202.16;;;22.24;42.73
55550;BME280;41397;49.972;18.944;2022-07-15T20:07:52;102211.20;;;22.26;42.61
55550;BME280;41397;49.972;18.944;2022-07-15T20:13:06;102216.24;;;22.22;43.47
55550;BME280;41397;49.972;18.944;2022-07-15T20:18:20;102213.91;;;22.17;44.04
55550;BME280;41397;49.972;18.944;2022-07-15T20:23:35;102219.31;;;22.11;43.96
55550;BME280;41397;49.972;18.944;2022-07-15T20:28:49;102217.73;;;22.08;44.22
55550;BME280;41397;49.972;18.944;2022-07-15T20:30:15;102214.23;;;22.06;44.34
55550;BME280;41397;49.972;18.944;2022-07-15T20:34:03;102213.69;;;22.03;44.93
55550;BME280;41397;49.972;18.944;2022-07-15T20:39:16;102210.20;;;22.01;45.09
55550;BME280;41397;49.972;18.944;2022-07-15T20:44:30;102218.89;;;21.98;45.03
55550;BME280;41397;49.972;18.944;2022-07-15T20:49:44;102226.54;;;21.95;45.67
55550;BME280;41397;49.972;18.944;2022-07-15T20:54:57;102227.05;;;21.91;45.47
55550;BME280;41397;49.972;18.944;2022-07-15T21:00:11;102236.23;;;21.83;45.60
55550;BME280;41397;49.972;18.944;2022-07-15T21:00:30;102233.45;;;21.83;45.51
55550;BME280;41397;49.972;18.944;2022-07-15T21:05:27;102236.23;;;21.83;45.88
55550;BME280;41397;49.972;18.944;2022-07-15T21:10:43;102236.38;;;21.82;46.42
55550;BME280;41397;49.972;18.944;2022-07-15T21:16:01;102239.84;;;21.76;47.49
55550;BME280;41397;49.972;18.944;2022-07-15T21:21:18;102246.41;;;21.66;48.49
55550;BME280;41397;49.972;18.944;2022-07-15T21:26:35;102247.94;;;21.61;47.77
55550;BME280;41397;49.972;18.944;2022-07-15T21:30:44;102244.58;;;21.57;48.08
55550;BME280;41397;49.972;18.944;2022-07-15T21:31:57;102243.85;;;21.55;48.32
55550;BME280;41397;49.972;18.944;2022-07-15T21:37:11;102246.77;;;21.45;48.85
55550;BME280;41397;49.972;18.944;2022-07-15T21:42:25;102247.87;;;21.35;48.68
55550;BME280;41397;49.972;18.944;2022-07-15T21:47:39;102254.77;;;21.31;49.14
55550;BME280;41397;49.972;18.944;2022-07-15T21:52:53;102257.19;;;21.25;49.86
55550;BME280;41397;49.972;18.944;2022-07-15T21:58:06;102245.99;;;21.17;50.98
55550;BME280;41397;49.972;18.944;2022-07-15T22:00:59;102248.37;;;21.12;51.14
55550;BME280;41397;49.972;18.944;2022-07-15T22:03:20;102256.87;;;21.11;51.25
55550;BME280;41397;49.972;18.944;2022-07-15T22:08:36;102251.41;;;21.01;51.15
55550;BME280;41397;49.972;18.944;2022-07-15T22:13:50;102256.16;;;20.91;52.64
55550;BME280;41397;49.972;18.944;2022-07-15T22:19:04;102251.24;;;20.84;52.40
55550;BME280;41397;49.972;18.944;2022-07-15T22:24:19;102253.03;;;20.76;52.75
55550;BME280;41397;49.972;18.944;2022-07-15T22:29:33;102246.11;;;20.62;53.63
55550;BME280;41397;49.972;18.944;2022-07-15T22:34:47;102240.02;;;20.49;53.96
55550;BME280;41397;49.972;18.944;2022-07-15T22:40:01;102235.40;;;20.39;53.94
55550;BME280;41397;49.972;18.944;2022-07-15T22:45:15;102240.86;;;20.31;54.33
55550;BME280;41397;49.972;18.944;2022-07-15T22:49:19;102242.50;;;20.24;54.83
55550;BME280;41397;49.972;18.944;2022-07-15T22:50:30;102232.60;;;20.22;54.81
55550;BME280;41397;49.972;18.944;2022-07-15T22:55:44;102250.48;;;20.09;55.43
55550;BME280;41397;49.972;18.944;2022-07-15T23:00:57;102249.05;;;20.05;55.14
55550;BME280;41397;49.972;18.944;2022-07-15T23:06:11;102235.92;;;19.98;55.44
55550;BME280;41397;49.972;18.944;2022-07-15T23:11:25;102239.45;;;19.90;56.36
55550;BME280;41397;49.972;18.944;2022-07-15T23:16:38;102240.20;;;19.82;56.54
55550;BME280;41397;49.972;18.944;2022-07-15T23:19:34;102242.88;;;19.74;57.49
55550;BME280;41397;49.972;18.944;2022-07-15T23:21:52;102245.38;;;19.67;58.23
55550;BME280;41397;49.972;18.944;2022-07-15T23:27:06;102238.63;;;19.60;58.08
55550;BME280;41397;49.972;18.944;2022-07-15T23:32:19;102243.02;;;19.53;58.48
55550;BME280;41397;49.972;18.944;2022-07-15T23:37:33;102236.64;;;19.43;58.81